Lake Levels
Share |
Lake Levels
LAKES RIVERS MARINAS NEWS HOUSES EVENTS MAPS
1,649 Lakes:
Lake Store

Lake Levels

LakeLevels.info is a national information and alert service for lake water levels in the United States. With a FREE member account you can receive water level alerts by email when the water level reaches your desired alert level.


We currently offer Lake Level information and alerts for 94 lakes and serve 9,908 members with 24,329 alerts.


Sign-up for a Lake Level Alert




Filter By State:
Lake Name Current
Level
Full Pool +/-
Full Pool
Reading
Date - Time
Alan Henry (TX) 2,209.98 2,224.00 -14.02 3/26/2015  10:30:00 PM
Amistad (TX) 1,088.09 1,117.00 -28.91 3/26/2015  11:15:00 PM
Amon Carter (TX) 913.31 920.00 -6.69 3/26/2015  7:00:00 PM
Aquilla (TX) 537.76 537.50 0.26 3/26/2015  8:30:00 PM
Arlington (TX) 547.81 550.00 -2.19 3/26/2015  12:00:00 AM
Arrowhead (TX) 906.62 926.00 -19.38 3/26/2015  12:00:00 AM
Athens (TX) 440.43 440.00 0.43 3/26/2015  8:30:00 PM
Austin (TX) 492.72 492.80 -0.08 3/26/2015  11:09:00 AM
Bardwell (TX) 421.73 421.00 0.73 3/26/2015  11:30:00 PM
Belton (TX) 582.10 594.00 -11.90 3/26/2015  11:00:00 PM
Benbrook (TX) 687.35 694.00 -6.65 3/26/2015  8:00:00 PM
Bob Sandlin (TX) 337.96 337.50 0.46 3/26/2015  9:50:00 AM
Bonham (TX) 565.00 565.00 -0.00 3/26/2015  9:00:00 PM
Brady Creek (TX) 1,726.67 1,743.00 -16.33 3/26/2015  11:45:00 PM
Bridgeport (TX) 812.10 836.00 -23.90 3/26/2015  8:00:00 PM
Brownwood (TX) 1,412.03 1,425.00 -12.97 3/26/2015  8:30:00 PM
Buchanan (TX) 987.88 1,020.50 -32.62 3/26/2015  11:09:00 AM
Caddo (LA TX) 171.25 168.50 2.75 3/26/2015  8:00:00 AM
Canyon (TX) 897.97 909.00 -11.03 3/26/2015  7:15:00 PM
Cedar Creek (TX) 322.00 ??? 3/26/2015  11:45:00 PM
Champion Creek (TX) 2,035.07 2,083.00 -47.93 3/26/2015  9:51:00 AM
Cherokee (TX) 280.30 280.00 0.30 3/26/2015  7:00:00 AM
Choke Canyon (TX) 192.36 220.50 -28.14 3/26/2015  7:30:00 AM
Cisco (TX) 1,502.22 1,520.00 -17.78 3/27/2015  12:30:00 AM
Coleman (TX) 1,698.05 1,718.00 -19.95 3/26/2015  11:30:00 PM
Coleto Creek (TX) 98.37 98.28 0.09 3/26/2015  10:00:00 PM
Colorado City (TX) 2,047.05 2,070.20 -23.15 3/26/2015  9:51:00 AM
Conroe (TX) 201.23 201.00 0.23 3/26/2015  10:45:00 PM
Corpus Christi (TX) 87.74 94.00 -6.26 3/26/2015  9:46:00 AM
E. V. Spence (TX) 1,823.45 1,898.00 -74.55 3/26/2015  9:00:00 PM
Eagle Mountain (TX) 639.11 649.00 -9.89 3/26/2015  10:45:00 PM
Falcon (TX) 277.40 301.20 -23.80 3/26/2015  11:09:00 AM
Fork (TX) 400.09 403.00 -2.91 3/26/2015  11:30:00 PM
Georgetown (TX) 780.94 791.00 -10.06 3/26/2015  9:00:00 PM
Graham (TX) 1,060.39 1,075.00 -14.61 3/26/2015  11:00:00 PM
Granbury (TX) 684.58 693.00 -8.42 3/26/2015  11:30:00 PM
Granger (TX) 505.44 504.00 1.44 3/26/2015  9:00:00 PM
Grapevine (TX) 525.65 535.00 -9.35 3/26/2015  7:45:00 PM
Hords Creek (TX) 1,886.15 1,900.00 -13.85 3/26/2015  3:30:00 PM
Houston (TX) 42.55 41.70 0.85 3/26/2015  11:30:00 PM
Hubbard Creek (TX) 1,152.69 1,183.00 -30.31 3/26/2015  8:15:00 PM
Hubert M Moss (TX) 715.09 715.00 0.09 3/26/2015  10:15:00 PM
Inks (TX) 887.16 886.90 0.26 3/26/2015  8:00:00 PM
Jacksonville (TX) 421.83 422.00 -0.17 3/26/2015  9:50:00 AM
JB Thomas (TX) 2,238.76 2,258.00 -19.24 3/26/2015  8:45:00 PM
Jim Chapman (TX) 437.95 440.00 -2.05 3/26/2015  9:50:00 AM
Joe Pool (TX) 522.35 522.00 0.35 3/26/2015  11:00:00 PM
Lake O' the Pines (TX) 236.89 228.50 8.39 3/26/2015  9:50:00 AM
Lavon (TX) 487.28 492.00 -4.72 3/26/2015  8:00:00 PM
Leon (TX) 1,367.55 ??? 3/26/2015  10:45:00 PM
Lewisville (TX) 517.95 522.00 -4.05 3/26/2015  11:30:00 PM
Limestone (TX) 363.39 363.00 0.39 3/26/2015  10:44:00 PM
Livingston (TX) 131.63 131.00 0.63 3/26/2015  11:15:00 PM
Lyndon B. Johnson (TX) 824.81 825.00 -0.19 3/26/2015  11:09:00 AM
MacKenzie (TX) 3,009.28 3,100.00 -90.72 3/26/2015  11:30:00 PM
Marble Falls (TX) 736.52 737.00 -0.48 3/26/2015  11:09:00 AM
Martin Creek (TX) 306.07 306.00 0.07 3/26/2015  8:30:00 PM
Medina (TX) 974.60 1,062.00 -87.40 3/26/2015  10:00:00 PM
Meredith (TX) 2,858.27 2,941.00 -82.73 3/26/2015  8:30:00 PM
Mexia (TX) 448.41 448.30 0.11 3/26/2015  8:15:00 PM
Mineral Wells (TX) 855.44 863.00 -7.56 3/27/2015  4:30:00 AM
Moss Creek (TX) 2,327.20 2,337.00 -9.80 3/26/2015  11:30:00 PM
Murvaul (TX) 265.84 265.50 0.34 3/26/2015  9:50:00 AM
Nacogdoches (TX) 279.74 279.00 0.74 3/26/2015  9:50:00 AM
Natural Dam Salt (TX) 2,447.33 2,457.00 -9.67 3/26/2015  9:51:00 AM
Nocona (TX) 813.65 827.00 -13.35 3/26/2015  11:00:00 PM
O.H. Ivie (TX) 1,507.17 1,551.50 -44.33 3/26/2015  11:15:00 PM
Palestine (TX) 346.49 345.00 1.49 3/26/2015  9:50:00 AM
Palo Pinto (TX) 847.44 867.00 -19.56 3/26/2015  7:15:00 PM
Pat Cleburne (TX) 728.69 733.60 -4.91 3/26/2015  11:00:00 PM
Pat Mayse (TX) 453.06 451.00 2.06 3/26/2015  9:50:00 AM
Phantom Hill (TX) 1,619.00 1,635.90 -16.90 3/26/2015  12:00:00 AM
Possum Kingdom (TX) 985.87 1,000.00 -14.13 3/26/2015  9:43:00 AM
Proctor (TX) 1,149.36 1,162.00 -12.64 3/26/2015  11:30:00 PM
Ray Hubbard (TX) 429.72 435.50 -5.78 3/26/2015  10:30:00 PM
Ray Roberts (TX) 626.88 632.50 -5.62 3/26/2015  9:15:00 PM
Red Bluff (TX) 2,824.74 2,827.13 -2.39 3/26/2015  9:51:00 AM
Richland Chambers (TX) 308.76 315.00 -6.24 3/26/2015  9:43:00 AM
Sam Rayburn (TX) 169.52 164.40 5.12 3/26/2015  10:30:00 PM
Somerville (TX) 241.19 238.00 3.19 3/26/2015  11:00:00 PM
Squaw Creek (TX) 773.60 775.00 -1.40 3/26/2015  9:00:00 PM
Tawakoni (TX) 430.88 437.50 -6.62 3/26/2015  9:30:00 PM
Texana (TX) 43.96 44.00 -0.04 3/26/2015  11:00:00 PM
Texoma (TX) 613.46 617.00 -3.54 3/26/2015  10:00:00 PM
Toledo Bend (TX LA) 172.65 172.00 0.65 3/26/2015  11:30:00 PM
Travis (TX) 627.88 681.00 -53.12 3/26/2015  10:00:00 PM
Twin Buttes (TX) 1,892.79 1,940.00 -47.21 3/26/2015  12:00:00 AM
Tyler (TX) 375.75 375.50 0.25 3/26/2015  9:50:00 AM
Waco (TX) 461.34 462.00 -0.66 3/26/2015  10:15:00 PM
Waxahachie (TX) 531.00 ??? 3/26/2015  12:00:00 AM
White River (TX) 2,342.56 ??? 3/26/2015  8:15:00 PM
Whitney (TX) 523.62 533.00 -9.38 3/26/2015  11:15:00 PM
Worth (TX) 590.76 594.00 -3.24 3/26/2015  11:00:00 PM
Wright Patman (TX) 235.60 220.60 15.00 3/26/2015  9:50:00 AM


CURRENT DAILY STREAMFLOW CONDITIONS
High
90th percentile
75th - 89th percentile
25th - 74th percentile
10th - 24th percentile
10th percentile
Low
Not ranked

The colored dots on this map depict streamflow conditions as a percentile, which is computed from the period of record for the current day of the year. Only stations with at least 30 years of record are used. The gray circles indicate other stations that were not ranked in percentiles either because they have fewer than 30 years of record or because they report parameters other than streamflow. Some stations, for example, measure stage only.
TX Daily Streamflow Conditions



U.S. Drought Monitor